Modesto, California
Current Conditions -  °F | °C
As of 2:18 AM on Friday 21 Nov 2014 (Local Time) from KMOD Reporting Station
Haze Haze  
Wind Chill: 52°   Ceiling: 200
Heat Index: 52°   Visibility: 1.2mi
Dew Point: 52°   Wind: 10mph
Humidity: 100%   Direction: 290°WNW
Pressure: 30.03"   Gusts: NA
Location:  37.64°N, 120.99°W
Report Text: KMOD 211018Z AUTO 29009KT 1 1/4SM BR OVC002 11/11 A3003 RMK AO2 T01110111
Loading
Personal Weather Stations






























Interactive Weather Map New forecast layout! Learn more

10-Day Weather Forecast

Advertisements
Track Severe Weather on mobile